Anabel, Missouri
Current Conditions -  °F | °C
As of 1:55 AM on Tuesday 27 Jan 2015 (Local Time) from KIRK Reporting Station
Overcast Overcast  
Wind Chill: 31°   Ceiling: 2400
Heat Index: 38°   Visibility: 10mi
Dew Point: 34°   Wind: 9mph
Humidity: 86%   Direction: 350°N
Pressure: 30.01"   Gusts: NA
Location:  39.75°N, 92.34°W
Report Text: KIRK 270755Z AUTO 35008KT 10SM OVC024 03/01 A3001 RMK AO2 SLP171 T00330011
Loading
Personal Weather Stations






























Interactive Weather Map New forecast layout! Learn more

10-Day Weather Forecast

Advertisements
Track Severe Weather on mobile